createdAt,value
2022-10-13T00:00:47.960Z,38.72
2022-10-13T00:01:29.952Z,39.34
2022-10-13T00:02:03.955Z,39.76
2022-10-13T00:02:37.612Z,39.40
2022-10-13T00:03:18.909Z,39.59
2022-10-13T00:03:53.937Z,39.31
2022-10-13T00:04:27.700Z,38.36
2022-10-13T00:05:08.874Z,37.85
2022-10-13T00:05:48.982Z,36.55
2022-10-13T00:06:25.736Z,37.30
2022-10-13T00:07:05.913Z,37.16
2022-10-13T00:07:39.954Z,37.28
2022-10-13T00:08:18.833Z,36.59
2022-10-13T00:09:00.877Z,36.50
2022-10-13T00:09:34.944Z,36.58
2022-10-13T00:10:08.904Z,36.17
2022-10-13T00:10:48.938Z,35.99
2022-10-13T00:11:30.208Z,36.29
2022-10-13T00:12:03.736Z,35.90
2022-10-13T00:12:45.910Z,35.06
2022-10-13T00:13:19.988Z,35.17
2022-10-13T00:13:57.925Z,34.44
2022-10-13T00:14:38.860Z,34.39
2022-10-13T00:15:14.969Z,34.31
2022-10-13T00:15:49.102Z,33.90
2022-10-13T00:16:30.061Z,32.63
2022-10-13T00:17:03.968Z,32.71
2022-10-13T00:17:37.662Z,33.53
2022-10-13T00:18:18.888Z,33.16
2022-10-13T00:18:52.975Z,32.38
2022-10-13T00:19:27.736Z,32.71
2022-10-13T00:20:08.874Z,31.70
2022-10-13T00:20:47.932Z,31.27
2022-10-13T00:21:26.386Z,31.13
2022-10-13T00:22:06.859Z,31.31
2022-10-13T00:22:40.933Z,31.49
2022-10-13T00:23:15.633Z,31.49
2022-10-13T00:23:57.877Z,31.11
2022-10-13T00:24:31.970Z,31.52
2022-10-13T00:25:06.222Z,31.66
2022-10-13T00:25:50.860Z,31.02
2022-10-13T00:26:25.960Z,30.50
2022-10-13T00:26:59.594Z,30.45
2022-10-13T00:27:39.862Z,31.36
2022-10-13T00:28:13.995Z,31.49
2022-10-13T00:28:52.250Z,30.79
2022-10-13T00:29:33.865Z,31.27
2022-10-13T00:30:07.908Z,31.41
2022-10-13T00:30:42.077Z,31.11
2022-10-13T00:31:36.824Z,30.58
2022-10-13T00:32:10.941Z,30.79
2022-10-13T00:32:44.572Z,30.91
2022-10-13T00:33:24.861Z,31.45
2022-10-13T00:33:58.971Z,30.00
2022-10-13T00:34:32.561Z,28.67
2022-10-13T00:35:13.878Z,28.98
2022-10-13T00:35:50.924Z,29.54
2022-10-13T00:36:25.361Z,28.30
2022-10-13T00:37:04.845Z,28.21
2022-10-13T00:37:38.923Z,28.85
2022-10-13T00:38:13.218Z,28.24
2022-10-13T00:38:53.854Z,28.00
2022-10-13T00:39:27.952Z,28.36
2022-10-13T00:40:01.698Z,28.13
2022-10-13T00:41:00.864Z,27.94
2022-10-13T00:41:35.154Z,27.85
2022-10-13T00:42:14.801Z,27.36
2022-10-13T00:42:54.832Z,27.60
2022-10-13T00:43:37.965Z,28.50
2022-10-13T00:45:04.322Z,28.58
2022-10-13T00:45:44.836Z,28.06
2022-10-13T00:46:25.874Z,27.54
2022-10-13T00:46:59.566Z,27.89
2022-10-13T00:47:58.854Z,28.40
2022-10-13T00:48:32.563Z,28.44
2022-10-13T00:49:26.828Z,27.96
2022-10-13T00:50:01.447Z,28.65
2022-10-13T00:50:55.812Z,28.99
2022-10-13T00:51:39.941Z,28.79
2022-10-13T00:52:21.120Z,28.40
2022-10-13T00:53:02.859Z,28.45
2022-10-13T00:53:44.928Z,28.40
2022-10-13T00:54:28.816Z,28.46
2022-10-13T00:55:10.890Z,28.29
2022-10-13T00:55:52.826Z,27.92
2022-10-13T00:56:34.892Z,27.84
2022-10-13T00:57:15.836Z,27.50
2022-10-13T00:58:02.694Z,27.84
2022-10-13T00:58:45.828Z,27.92
2022-10-13T00:59:31.940Z,27.88
2022-10-13T01:00:12.838Z,27.02
2022-10-13T01:00:56.925Z,27.05
2022-10-13T01:01:38.822Z,26.42
2022-10-13T01:02:25.840Z,26.76
2022-10-13T01:02:59.632Z,26.76
2022-10-13T01:03:47.816Z,26.38
2022-10-13T01:04:25.441Z,25.92
2022-10-13T01:05:13.828Z,26.06
2022-10-13T01:05:48.921Z,26.09
2022-10-13T01:06:35.820Z,26.14
2022-10-13T01:07:09.704Z,26.23
2022-10-13T01:07:50.834Z,26.27
2022-10-13T01:08:27.195Z,25.95
2022-10-13T01:09:01.528Z,25.96
2022-10-13T01:09:44.806Z,25.38
2022-10-13T01:10:24.844Z,25.35
2022-10-13T01:11:20.238Z,25.01
2022-10-13T01:12:28.816Z,25.20
2022-10-13T01:13:32.834Z,25.50
2022-10-13T01:14:06.389Z,25.36
2022-10-13T01:15:09.796Z,24.91
2022-10-13T01:16:00.305Z,25.16
2022-10-13T01:16:56.801Z,25.71
2022-10-13T01:18:05.765Z,25.45
2022-10-13T01:19:07.837Z,26.13
2022-10-13T01:20:06.313Z,25.44
2022-10-13T01:21:11.805Z,24.90
2022-10-13T01:22:14.250Z,24.76
2022-10-13T01:23:23.789Z,24.56
2022-10-13T01:24:17.829Z,24.11
2022-10-13T01:25:42.880Z,24.31
2022-10-13T01:27:12.781Z,24.74
2022-10-13T01:28:40.893Z,24.50
2022-10-13T01:29:34.809Z,23.99
2022-10-13T01:30:25.901Z,23.79
2022-10-13T01:31:18.839Z,23.86
2022-10-13T01:32:26.924Z,23.48
2022-10-13T01:33:30.792Z,23.71
2022-10-13T01:34:27.844Z,24.17
2022-10-13T01:35:24.809Z,23.81
2022-10-13T01:36:48.884Z,23.99
2022-10-13T01:37:55.798Z,23.69
2022-10-13T01:38:54.913Z,23.29
2022-10-13T01:40:30.813Z,23.44
2022-10-13T01:41:37.913Z,24.06
2022-10-13T01:42:33.766Z,23.58
2022-10-13T01:43:24.841Z,23.19
2022-10-13T01:44:24.789Z,23.21
2022-10-13T01:45:07.873Z,23.85
2022-10-13T01:46:07.791Z,23.71
2022-10-13T01:46:49.843Z,24.01
2022-10-13T01:47:30.764Z,23.25
2022-10-13T01:48:12.844Z,23.44
2022-10-13T01:48:52.769Z,23.73
2022-10-13T01:49:37.834Z,23.88
2022-10-13T01:50:17.778Z,23.04
2022-10-13T01:51:00.003Z,23.17
2022-10-13T01:51:40.902Z,23.67
2022-10-13T01:52:24.879Z,23.46
2022-10-13T01:53:07.766Z,23.45
2022-10-13T01:53:49.859Z,23.25
2022-10-13T01:54:29.771Z,23.42
2022-10-13T01:55:18.835Z,23.61
2022-10-13T01:56:05.752Z,23.48
2022-10-13T01:56:52.809Z,23.10
2022-10-13T01:57:42.621Z,23.01
2022-10-13T01:58:29.762Z,23.19
2022-10-13T01:59:07.416Z,23.16
2022-10-13T01:59:54.754Z,23.02
2022-10-13T02:00:34.291Z,23.11
2022-10-13T02:02:11.781Z,23.02
2022-10-13T02:03:15.258Z,22.83
2022-10-13T02:04:12.792Z,22.66
2022-10-13T02:05:09.968Z,22.70
2022-10-13T02:06:03.752Z,22.50
2022-10-13T02:06:52.053Z,22.73
2022-10-13T02:07:53.779Z,22.63
2022-10-13T02:09:02.858Z,22.49
2022-10-13T02:09:54.813Z,22.44
2022-10-13T02:10:41.754Z,22.44
2022-10-13T02:11:27.824Z,22.42
2022-10-13T02:12:23.754Z,23.09
2022-10-13T02:13:17.785Z,23.30
2022-10-13T02:13:54.133Z,23.16
2022-10-13T02:14:43.733Z,22.81
2022-10-13T02:15:22.672Z,22.44
2022-10-13T02:16:12.759Z,22.83
2022-10-13T02:16:47.589Z,22.65
2022-10-13T02:17:35.758Z,22.73
2022-10-13T02:18:12.892Z,22.64
2022-10-13T02:18:53.769Z,22.86
2022-10-13T02:19:27.808Z,22.80
2022-10-13T02:20:01.555Z,23.14
2022-10-13T02:20:42.748Z,23.77
2022-10-13T02:21:16.797Z,23.91
2022-10-13T02:21:51.993Z,23.80
2022-10-13T02:22:37.763Z,24.13
2022-10-13T02:23:18.848Z,24.67
2022-10-13T02:23:52.477Z,24.65
2022-10-13T02:24:33.765Z,24.95
2022-10-13T02:25:07.801Z,24.74
2022-10-13T02:25:41.893Z,25.11
2022-10-13T02:26:22.730Z,24.99
2022-10-13T02:26:57.804Z,25.59
2022-10-13T02:27:31.469Z,25.49
2022-10-13T02:28:12.796Z,25.58
2022-10-13T02:28:46.831Z,25.60
2022-10-13T02:29:20.860Z,25.59
2022-10-13T02:30:03.760Z,24.79
2022-10-13T02:30:39.150Z,25.40
2022-10-13T02:31:13.461Z,25.25
2022-10-13T02:31:54.734Z,24.84
2022-10-13T02:32:29.795Z,25.58
2022-10-13T02:33:04.185Z,25.88
2022-10-13T02:33:43.712Z,26.24
2022-10-13T02:34:18.807Z,26.16
2022-10-13T02:34:52.477Z,25.76
2022-10-13T02:35:33.770Z,24.88
2022-10-13T02:36:07.789Z,22.76
2022-10-13T02:36:41.796Z,23.09
2022-10-13T02:37:21.728Z,23.64
2022-10-13T02:37:55.806Z,23.10
2022-10-13T02:38:29.432Z,23.34
2022-10-13T02:39:11.711Z,22.76
2022-10-13T02:39:45.801Z,22.55
2022-10-13T02:40:19.694Z,22.73
2022-10-13T02:41:01.741Z,22.90
2022-10-13T02:41:35.789Z,22.66
2022-10-13T02:42:09.570Z,22.60
2022-10-13T02:42:50.734Z,22.51
2022-10-13T02:43:24.817Z,22.23
2022-10-13T02:43:58.427Z,22.05
2022-10-13T02:44:39.710Z,22.29
2022-10-13T02:45:14.926Z,22.17
2022-10-13T02:45:48.420Z,22.52
2022-10-13T02:46:29.733Z,22.90
2022-10-13T02:47:03.773Z,22.63
2022-10-13T02:47:37.559Z,22.65
2022-10-13T02:48:17.707Z,22.71
2022-10-13T02:48:51.778Z,22.34
2022-10-13T02:49:25.453Z,22.31
2022-10-13T02:50:06.724Z,22.89
2022-10-13T02:50:40.810Z,22.27
2022-10-13T02:51:14.629Z,22.19
2022-10-13T02:51:55.806Z,22.42
2022-10-13T02:52:29.783Z,21.88
2022-10-13T02:53:03.469Z,22.23
2022-10-13T02:53:43.692Z,21.38
2022-10-13T02:54:17.778Z,20.27
2022-10-13T02:54:52.147Z,20.71
2022-10-13T02:55:31.708Z,20.48
2022-10-13T02:56:05.789Z,20.36
2022-10-13T02:56:39.462Z,20.30
2022-10-13T02:57:20.733Z,20.41
2022-10-13T02:57:54.773Z,20.51
2022-10-13T02:58:28.524Z,20.66
2022-10-13T02:59:08.697Z,20.60
2022-10-13T02:59:42.772Z,20.10
2022-10-13T03:00:17.096Z,19.89
2022-10-13T03:00:57.698Z,19.66
2022-10-13T03:01:31.797Z,19.85
2022-10-13T03:02:05.400Z,19.84
2022-10-13T03:02:46.733Z,19.86
2022-10-13T03:03:20.852Z,20.06
2022-10-13T03:03:54.441Z,20.39
2022-10-13T03:04:35.696Z,20.46
2022-10-13T03:05:09.764Z,20.08
2022-10-13T03:05:44.984Z,20.10
2022-10-13T03:06:25.693Z,20.26
2022-10-13T03:06:59.763Z,19.99
2022-10-13T03:07:33.417Z,20.33
2022-10-13T03:08:14.730Z,20.25
2022-10-13T03:08:48.789Z,19.60
2022-10-13T03:09:22.484Z,19.52
2022-10-13T03:10:02.710Z,19.85
2022-10-13T03:10:43.775Z,20.44
2022-10-13T03:11:23.697Z,20.04
2022-10-13T03:12:03.754Z,20.55
2022-10-13T03:12:43.691Z,19.85
2022-10-13T03:13:31.709Z,19.55
2022-10-13T03:14:05.453Z,19.84
2022-10-13T03:14:52.693Z,19.90
2022-10-13T03:15:26.447Z,20.60
2022-10-13T03:16:13.715Z,20.83
2022-10-13T03:16:47.402Z,20.35
2022-10-13T03:17:34.681Z,20.04
2022-10-13T03:18:08.401Z,19.80
2022-10-13T03:18:56.712Z,20.29
2022-10-13T03:19:30.707Z,20.70
2022-10-13T03:20:18.671Z,20.34
2022-10-13T03:20:58.279Z,20.29
2022-10-13T03:21:45.705Z,21.19
2022-10-13T03:22:19.629Z,21.51
2022-10-13T03:23:06.686Z,20.60
2022-10-13T03:23:40.475Z,20.42
2022-10-13T03:24:21.719Z,20.85
2022-10-13T03:24:55.795Z,20.35
2022-10-13T03:25:29.425Z,20.99
2022-10-13T03:26:10.678Z,20.58
2022-10-13T03:26:44.731Z,20.36
2022-10-13T03:27:18.454Z,19.89
2022-10-13T03:27:58.696Z,20.02
2022-10-13T03:28:32.889Z,20.80
2022-10-13T03:29:06.425Z,20.06
2022-10-13T03:29:47.723Z,20.25
2022-10-13T03:30:21.782Z,19.80
2022-10-13T03:31:07.160Z,19.91
2022-10-13T03:31:47.669Z,20.19
2022-10-13T03:32:22.238Z,20.45
2022-10-13T03:32:56.410Z,20.90
2022-10-13T03:33:37.662Z,20.59
2022-10-13T03:34:11.849Z,19.81
2022-10-13T03:34:45.385Z,19.44
2022-10-13T03:35:26.712Z,19.86
2022-10-13T03:36:01.692Z,20.39
2022-10-13T03:36:35.469Z,21.02
2022-10-13T03:37:16.685Z,20.84
2022-10-13T03:37:50.749Z,20.66
2022-10-13T03:38:24.399Z,20.86
2022-10-13T03:39:04.653Z,21.06
2022-10-13T03:39:38.721Z,21.89
2022-10-13T03:40:12.698Z,21.85
2022-10-13T03:40:53.700Z,22.04
2022-10-13T03:41:27.788Z,23.00
2022-10-13T03:42:01.381Z,24.71
2022-10-13T03:42:47.674Z,24.67
2022-10-13T03:43:21.726Z,23.64
2022-10-13T03:43:55.412Z,22.80
2022-10-13T03:44:35.645Z,22.36
2022-10-13T03:45:10.733Z,22.74
2022-10-13T03:45:44.398Z,23.35
2022-10-13T03:46:25.706Z,22.44
2022-10-13T03:46:59.877Z,22.15
2022-10-13T03:47:36.659Z,22.33
2022-10-13T03:48:16.666Z,22.74
2022-10-13T03:48:50.762Z,22.38
2022-10-13T03:49:24.625Z,21.73
2022-10-13T03:50:04.656Z,22.09
2022-10-13T03:50:38.727Z,22.26
2022-10-13T03:51:17.487Z,21.77
2022-10-13T03:51:58.741Z,21.29
2022-10-13T03:52:33.038Z,21.74
2022-10-13T03:53:08.128Z,21.99
2022-10-13T03:53:47.725Z,22.23
2022-10-13T03:54:21.780Z,21.92
2022-10-13T03:54:55.393Z,22.40
2022-10-13T03:55:35.649Z,23.26
2022-10-13T03:56:21.742Z,23.45
2022-10-13T03:57:02.669Z,22.96
2022-10-13T03:57:42.767Z,22.81
2022-10-13T03:58:23.643Z,22.40
2022-10-13T03:59:06.705Z,22.84
2022-10-13T03:59:50.663Z,23.54
2022-10-13T04:00:30.739Z,23.70
2022-10-13T04:01:12.634Z,23.75
2022-10-13T04:01:52.752Z,23.46
2022-10-13T04:02:33.862Z,23.42
2022-10-13T04:03:13.727Z,23.23
2022-10-13T04:03:54.623Z,23.56
2022-10-13T04:04:35.247Z,24.26
2022-10-13T04:05:16.644Z,23.91
2022-10-13T04:06:14.658Z,23.50
2022-10-13T04:07:08.665Z,23.40
2022-10-13T04:07:55.656Z,24.01
2022-10-13T04:08:29.777Z,23.71
2022-10-13T04:09:16.684Z,23.80
2022-10-13T04:09:50.701Z,24.24
2022-10-13T04:10:37.629Z,23.48
2022-10-13T04:11:15.796Z,22.90
2022-10-13T04:12:02.620Z,22.56
2022-10-13T04:12:36.884Z,21.99
2022-10-13T04:13:17.660Z,21.95
2022-10-13T04:13:58.833Z,21.49
2022-10-13T04:14:39.627Z,21.73
2022-10-13T04:15:19.700Z,21.54
2022-10-13T04:16:00.628Z,21.54
2022-10-13T04:16:40.811Z,23.04
2022-10-13T04:17:20.617Z,23.14
2022-10-13T04:18:00.694Z,22.64
2022-10-13T04:18:44.627Z,22.90
2022-10-13T04:19:25.740Z,22.81
2022-10-13T04:20:05.663Z,23.41
2022-10-13T04:20:46.935Z,24.67
2022-10-13T04:21:27.645Z,25.70
2022-10-13T04:22:07.693Z,27.10
2022-10-13T04:22:47.633Z,27.33
2022-10-13T04:23:27.692Z,27.01
2022-10-13T04:24:09.632Z,26.69
2022-10-13T04:24:49.752Z,26.59
2022-10-13T04:25:29.630Z,27.94
2022-10-13T04:26:11.673Z,30.48
2022-10-13T04:26:52.636Z,31.60
2022-10-13T04:27:32.701Z,30.58
2022-10-13T04:28:13.726Z,30.74
2022-10-13T04:28:56.701Z,30.23
2022-10-13T04:29:37.629Z,30.85
2022-10-13T04:30:18.689Z,31.08
2022-10-13T04:30:59.620Z,31.41
2022-10-13T04:31:42.620Z,33.64
2022-10-13T04:32:22.808Z,33.19
2022-10-13T04:33:02.771Z,33.64
2022-10-13T04:33:42.614Z,33.95
2022-10-13T04:34:22.701Z,34.39
2022-10-13T04:35:03.642Z,33.33
2022-10-13T04:35:48.692Z,31.67
2022-10-13T04:36:29.619Z,30.83
2022-10-13T04:37:09.668Z,29.58
2022-10-13T04:37:50.616Z,28.30
2022-10-13T04:38:30.695Z,29.31
2022-10-13T04:39:11.675Z,28.83
2022-10-13T04:39:51.705Z,29.16
2022-10-13T04:40:33.652Z,29.02
2022-10-13T04:41:15.735Z,29.10
2022-10-13T04:41:56.614Z,29.35
2022-10-13T04:42:36.708Z,28.66
2022-10-13T04:43:16.611Z,28.88
2022-10-13T04:43:58.247Z,29.17
2022-10-13T04:44:38.574Z,27.58
2022-10-13T04:45:18.705Z,28.31
2022-10-13T04:45:59.650Z,27.61
2022-10-13T04:46:39.723Z,24.81
2022-10-13T04:47:19.611Z,23.92
2022-10-13T04:47:59.694Z,23.23
2022-10-13T04:48:40.585Z,23.21
2022-10-13T04:49:20.708Z,23.86
2022-10-13T04:50:00.601Z,24.99
2022-10-13T04:50:40.681Z,25.67
2022-10-13T04:51:27.605Z,24.60
2022-10-13T04:52:07.697Z,24.66
2022-10-13T04:52:47.608Z,26.01
2022-10-13T04:53:29.324Z,25.83
2022-10-13T04:54:11.600Z,25.66
2022-10-13T04:54:51.666Z,25.48
2022-10-13T04:55:31.569Z,25.79
2022-10-13T04:56:15.673Z,25.14
2022-10-13T04:56:56.693Z,24.69
2022-10-13T04:57:36.663Z,25.04
2022-10-13T04:58:16.578Z,25.14
2022-10-13T04:58:56.719Z,24.83
2022-10-13T04:59:36.609Z,24.41
2022-10-13T05:00:17.718Z,25.19
2022-10-13T05:00:58.652Z,25.54
2022-10-13T05:01:39.730Z,25.36
2022-10-13T05:02:20.942Z,25.51
2022-10-13T05:03:01.645Z,25.38
2022-10-13T05:03:42.589Z,24.63
2022-10-13T05:04:22.689Z,24.36
2022-10-13T05:05:02.585Z,24.74
2022-10-13T05:05:43.175Z,25.19
2022-10-13T05:06:28.592Z,24.21
2022-10-13T05:07:24.059Z,25.15
2022-10-13T05:08:04.620Z,25.20
2022-10-13T05:08:44.661Z,24.94
2022-10-13T05:09:24.565Z,24.92
2022-10-13T05:10:04.712Z,24.48
2022-10-13T05:10:45.572Z,24.60
2022-10-13T05:11:26.613Z,23.85
2022-10-13T05:12:06.602Z,22.67
2022-10-13T05:12:46.674Z,22.00
2022-10-13T05:13:27.606Z,22.04
2022-10-13T05:14:08.677Z,22.04
2022-10-13T05:14:48.580Z,23.13
2022-10-13T05:15:28.701Z,24.59
2022-10-13T05:16:17.557Z,23.90
2022-10-13T05:16:57.755Z,24.08
2022-10-13T05:17:38.570Z,23.63
2022-10-13T05:18:18.670Z,23.11
2022-10-13T05:19:01.618Z,22.88
2022-10-13T05:19:41.648Z,23.46
2022-10-13T05:20:24.589Z,22.39
2022-10-13T05:21:14.642Z,21.41
2022-10-13T05:21:54.545Z,20.80
2022-10-13T05:22:35.761Z,21.16
2022-10-13T05:23:16.577Z,20.85
2022-10-13T05:23:57.661Z,21.05
2022-10-13T05:24:43.580Z,21.21
2022-10-13T05:25:24.688Z,20.90
2022-10-13T05:26:10.570Z,20.88
2022-10-13T05:26:50.637Z,20.74
2022-10-13T05:27:30.570Z,21.49
2022-10-13T05:28:12.708Z,20.99
2022-10-13T05:28:53.612Z,21.08
2022-10-13T05:29:33.632Z,20.61
2022-10-13T05:30:15.601Z,20.39
2022-10-13T05:30:55.633Z,20.88
2022-10-13T05:31:37.580Z,20.85
2022-10-13T05:32:17.947Z,20.73
2022-10-13T05:32:58.573Z,20.55
2022-10-13T05:33:38.704Z,20.80
2022-10-13T05:34:18.552Z,20.58
2022-10-13T05:34:58.666Z,20.67
2022-10-13T05:35:39.596Z,21.14
2022-10-13T05:36:34.696Z,22.06
2022-10-13T05:37:15.552Z,22.21
2022-10-13T05:37:55.665Z,22.08
2022-10-13T05:38:35.574Z,23.05
2022-10-13T05:39:16.641Z,24.73
2022-10-13T05:39:56.556Z,25.42
2022-10-13T05:40:36.672Z,26.54
2022-10-13T05:41:19.608Z,27.61
2022-10-13T05:41:59.603Z,27.52
2022-10-13T05:42:42.555Z,28.33
2022-10-13T05:43:22.610Z,31.39
2022-10-13T05:44:09.553Z,31.86
2022-10-13T05:44:49.697Z,30.98
2022-10-13T05:45:30.560Z,31.46
2022-10-13T05:46:11.652Z,32.76
2022-10-13T05:46:51.588Z,32.54
2022-10-13T05:47:31.636Z,31.34
2022-10-13T05:48:12.560Z,31.92
2022-10-13T05:48:52.611Z,31.85
2022-10-13T05:49:33.526Z,31.16
2022-10-13T05:50:14.612Z,30.27
2022-10-13T05:50:55.553Z,29.76
2022-10-13T05:51:59.598Z,28.81
2022-10-13T05:52:54.552Z,27.49
2022-10-13T05:53:55.446Z,27.24
2022-10-13T05:54:59.558Z,26.49
2022-10-13T05:55:53.587Z,26.01
2022-10-13T05:57:05.615Z,24.05
2022-10-13T05:58:03.541Z,21.94
2022-10-13T05:59:01.573Z,21.31
2022-10-13T06:00:15.535Z,20.95
2022-10-13T06:03:28.573Z,19.59
2022-10-13T06:04:05.619Z,19.19
2022-10-13T06:04:55.544Z,19.36
2022-10-13T06:05:32.767Z,19.56
2022-10-13T06:06:19.521Z,20.19
2022-10-13T06:06:54.654Z,19.26
2022-10-13T06:07:41.525Z,19.31
2022-10-13T06:08:16.585Z,19.46
2022-10-13T06:08:57.554Z,19.30
2022-10-13T06:09:42.625Z,18.91
2022-10-13T06:10:23.545Z,19.20
2022-10-13T06:11:03.628Z,19.22
2022-10-13T06:11:44.524Z,19.00
2022-10-13T06:12:24.584Z,19.09
2022-10-13T06:13:04.522Z,19.20
2022-10-13T06:13:44.625Z,19.64
2022-10-13T06:14:24.554Z,19.06
2022-10-13T06:15:04.611Z,19.04
2022-10-13T06:15:44.504Z,19.36
2022-10-13T06:16:24.624Z,19.44
2022-10-13T06:17:05.538Z,19.21
2022-10-13T06:17:46.601Z,18.85
2022-10-13T06:18:26.533Z,19.52
2022-10-13T06:19:06.632Z,19.90
2022-10-13T06:19:46.570Z,19.31
2022-10-13T06:20:27.480Z,19.86
2022-10-13T06:21:07.517Z,19.90
2022-10-13T06:21:48.710Z,19.08
2022-10-13T06:22:29.529Z,19.29
2022-10-13T06:23:09.599Z,19.59
2022-10-13T06:23:49.542Z,19.95
2022-10-13T06:24:29.954Z,19.92
2022-10-13T06:25:12.608Z,20.20
2022-10-13T06:25:59.699Z,20.06
2022-10-13T06:26:40.503Z,20.02
2022-10-13T06:27:20.616Z,19.51
2022-10-13T06:28:02.533Z,19.90
2022-10-13T06:28:46.281Z,20.11
2022-10-13T06:29:30.507Z,19.79
2022-10-13T06:30:11.720Z,19.38
2022-10-13T06:30:55.554Z,19.16
2022-10-13T06:31:35.589Z,19.33
2022-10-13T06:32:15.561Z,19.54
2022-10-13T06:32:56.095Z,19.02
2022-10-13T06:33:37.512Z,19.24
2022-10-13T06:34:17.572Z,18.90
2022-10-13T06:34:58.518Z,18.55
2022-10-13T06:35:38.629Z,18.70
2022-10-13T06:36:19.544Z,18.86
2022-10-13T06:36:59.648Z,18.50
2022-10-13T06:37:39.518Z,19.23
2022-10-13T06:38:19.687Z,19.80
2022-10-13T06:39:00.500Z,19.08
2022-10-13T06:39:40.578Z,18.71
2022-10-13T06:40:22.544Z,18.63
2022-10-13T06:41:11.129Z,18.61
2022-10-13T06:41:51.515Z,18.85
2022-10-13T06:42:34.789Z,18.11
2022-10-13T06:43:15.542Z,18.59
2022-10-13T06:43:56.595Z,18.80
2022-10-13T06:44:38.500Z,18.66
2022-10-13T06:45:19.711Z,18.64
2022-10-13T06:46:00.500Z,18.23
2022-10-13T06:46:40.596Z,18.38
2022-10-13T06:47:21.552Z,18.33
2022-10-13T06:48:02.829Z,18.74
2022-10-13T06:48:43.509Z,18.63
2022-10-13T06:49:23.725Z,18.51
2022-10-13T06:50:03.504Z,18.50
2022-10-13T06:50:43.688Z,18.08
2022-10-13T06:51:24.548Z,18.56
2022-10-13T06:52:04.597Z,18.15
2022-10-13T06:52:45.517Z,18.36
2022-10-13T06:53:25.581Z,19.05
2022-10-13T06:54:06.495Z,18.44
2022-10-13T06:54:46.800Z,18.41
2022-10-13T06:55:28.504Z,18.38
2022-10-13T06:56:11.590Z,18.81
2022-10-13T06:56:51.547Z,18.50
2022-10-13T06:57:31.664Z,18.01
2022-10-13T06:58:11.582Z,18.55
2022-10-13T06:58:51.607Z,18.67
2022-10-13T06:59:34.518Z,18.27
2022-10-13T07:00:16.717Z,18.34
2022-10-13T07:00:56.521Z,18.83
2022-10-13T07:01:40.623Z,18.50
2022-10-13T07:02:21.934Z,18.34
2022-10-13T07:03:02.604Z,18.54
2022-10-13T07:03:42.535Z,18.52
2022-10-13T07:04:23.098Z,18.34
2022-10-13T07:05:03.693Z,17.95
2022-10-13T07:05:44.620Z,18.05
2022-10-13T07:06:25.486Z,18.11
2022-10-13T07:07:05.674Z,18.38
2022-10-13T07:07:45.481Z,18.25
2022-10-13T07:08:27.571Z,18.36
2022-10-13T07:09:13.684Z,18.31
2022-10-13T07:09:53.618Z,17.88
2022-10-13T07:10:34.533Z,17.94
2022-10-13T07:11:20.738Z,17.95
2022-10-13T07:12:01.485Z,18.20
2022-10-13T07:12:41.875Z,18.35
2022-10-13T07:14:06.547Z,17.51
2022-10-13T07:14:47.512Z,16.94
2022-10-13T07:15:27.596Z,16.63
2022-10-13T07:16:12.492Z,16.81
2022-10-13T07:16:54.565Z,17.38
2022-10-13T07:17:34.488Z,17.48
2022-10-13T07:18:14.540Z,16.81
2022-10-13T07:18:55.450Z,16.92
2022-10-13T07:19:35.549Z,17.14
2022-10-13T07:20:16.521Z,17.46
2022-10-13T07:20:56.568Z,17.15
2022-10-13T07:21:36.470Z,17.10
2022-10-13T07:22:16.616Z,16.69
2022-10-13T07:22:59.872Z,16.60
2022-10-13T07:23:41.598Z,16.46
2022-10-13T07:24:21.513Z,16.64
2022-10-13T07:25:01.588Z,16.98
2022-10-13T07:25:42.469Z,16.69
2022-10-13T07:26:23.525Z,16.70
2022-10-13T07:27:07.670Z,16.63
2022-10-13T07:27:48.513Z,16.49
2022-10-13T07:28:32.514Z,16.94
2022-10-13T07:29:12.533Z,16.75
2022-10-13T07:29:52.445Z,16.06
2022-10-13T07:30:33.517Z,15.81
2022-10-13T07:31:24.467Z,16.59
2022-10-13T07:32:04.617Z,17.70
2022-10-13T07:32:48.443Z,17.15
2022-10-13T07:33:28.522Z,17.54
2022-10-13T07:34:11.416Z,17.23
2022-10-13T07:34:51.522Z,17.61
2022-10-13T07:35:32.440Z,17.90
2022-10-13T07:36:13.542Z,17.60
2022-10-13T07:36:53.509Z,17.81
2022-10-13T07:37:33.537Z,17.91
2022-10-13T07:38:15.464Z,17.89
2022-10-13T07:38:55.541Z,18.13
2022-10-13T07:39:35.430Z,17.86
2022-10-13T07:40:16.498Z,17.98
2022-10-13T07:40:57.436Z,17.89
2022-10-13T07:41:37.532Z,16.79
2022-10-13T07:42:17.467Z,16.64
2022-10-13T07:42:57.588Z,16.34
2022-10-13T07:43:38.499Z,15.73
2022-10-13T07:44:18.757Z,15.85
2022-10-13T07:44:59.421Z,15.26
2022-10-13T07:45:39.709Z,15.21
2022-10-13T07:46:21.436Z,14.94
2022-10-13T07:47:01.553Z,14.60
2022-10-13T07:47:41.445Z,14.05
2022-10-13T07:49:03.425Z,13.68
2022-10-13T07:49:43.495Z,13.61
2022-10-13T07:50:24.449Z,13.44
2022-10-13T07:51:04.850Z,13.38
2022-10-13T07:51:45.410Z,14.04
2022-10-13T07:52:25.480Z,14.49
2022-10-13T07:53:06.478Z,13.96
2022-10-13T07:53:48.672Z,13.64
2022-10-13T07:54:29.406Z,13.86
2022-10-13T07:55:09.479Z,14.10
2022-10-13T07:55:49.441Z,13.69
2022-10-13T07:56:29.491Z,13.82
2022-10-13T07:57:10.434Z,14.11
2022-10-13T07:57:50.538Z,14.09
2022-10-13T07:58:30.520Z,13.84
2022-10-13T07:59:10.477Z,13.52
2022-10-13T07:59:51.396Z,13.63
2022-10-13T08:00:31.471Z,13.69
2022-10-13T08:02:39.074Z,13.61
2022-10-13T08:03:26.466Z,13.74
2022-10-13T08:04:07.449Z,13.51
2022-10-13T08:04:47.493Z,13.41
2022-10-13T08:05:27.401Z,13.30
2022-10-13T08:06:09.481Z,13.57
2022-10-13T08:06:49.418Z,13.31
2022-10-13T08:07:30.464Z,13.13
2022-10-13T08:08:10.404Z,13.35
2022-10-13T08:08:50.496Z,13.69
2022-10-13T08:09:31.447Z,13.80
2022-10-13T08:10:12.798Z,14.06
2022-10-13T08:11:39.479Z,13.19
2022-10-13T08:12:19.533Z,12.81
2022-10-13T08:13:00.505Z,13.43
2022-10-13T08:13:40.383Z,14.24
2022-10-13T08:14:20.523Z,13.96
2022-10-13T08:15:03.453Z,12.94
2022-10-13T08:15:48.597Z,12.93
2022-10-13T08:16:29.408Z,13.41
2022-10-13T08:17:09.459Z,13.38
2022-10-13T08:17:49.386Z,13.25
2022-10-13T08:18:30.505Z,13.81
2022-10-13T08:19:10.388Z,14.13
2022-10-13T08:19:50.468Z,13.91
2022-10-13T08:20:40.912Z,13.52
2022-10-13T08:21:57.168Z,13.79
2022-10-13T08:22:28.353Z,14.16
2022-10-13T08:23:08.505Z,13.54
2022-10-13T08:23:50.398Z,13.70
2022-10-13T08:24:30.731Z,13.38
2022-10-13T08:25:10.387Z,13.21
2022-10-13T08:25:51.408Z,12.57
2022-10-13T08:26:31.456Z,12.80
2022-10-13T08:27:05.107Z,12.88
2022-10-13T08:27:51.032Z,12.98
2022-10-13T08:28:29.547Z,12.57
2022-10-13T08:30:04.530Z,12.84
2022-10-13T08:30:38.585Z,12.96
2022-10-13T08:31:18.659Z,13.41
2022-10-13T08:32:00.703Z,14.04
2022-10-13T08:32:40.393Z,13.70
2022-10-13T08:33:21.450Z,13.43
2022-10-13T08:34:01.384Z,13.44
2022-10-13T08:34:42.517Z,13.35
2022-10-13T08:35:23.392Z,12.74
2022-10-13T08:36:03.473Z,12.63
2022-10-13T08:36:44.401Z,12.11
2022-10-13T08:37:26.446Z,12.80
2022-10-13T08:38:06.386Z,13.38
2022-10-13T08:38:46.455Z,12.64
2022-10-13T08:39:28.366Z,12.61
2022-10-13T08:40:09.442Z,13.10
2022-10-13T08:40:54.377Z,13.05
2022-10-13T08:41:51.522Z,12.76
2022-10-13T08:42:25.123Z,12.50
2022-10-13T08:43:12.394Z,13.11
2022-10-13T08:44:32.956Z,12.73
2022-10-13T08:45:40.888Z,12.99
2022-10-13T08:46:09.973Z,13.11
2022-10-13T08:47:14.464Z,13.11
2022-10-13T08:48:18.253Z,13.09
2022-10-13T08:49:05.352Z,13.41
2022-10-13T08:49:41.301Z,13.02
2022-10-13T08:50:33.348Z,13.14
2022-10-13T08:51:08.105Z,13.21
2022-10-13T08:51:56.401Z,13.40
2022-10-13T08:52:55.387Z,13.48
2022-10-13T08:53:40.454Z,13.64
2022-10-13T08:54:22.398Z,13.51
2022-10-13T08:55:03.451Z,12.96
2022-10-13T08:56:31.352Z,13.16
2022-10-13T08:57:12.413Z,13.39
2022-10-13T08:57:52.341Z,14.45
2022-10-13T08:58:40.461Z,15.90
2022-10-13T08:59:21.631Z,13.98
2022-10-13T08:59:55.101Z,14.18
2022-10-13T09:00:36.353Z,14.00
2022-10-13T09:01:18.473Z,13.48
2022-10-13T09:01:55.890Z,13.60
2022-10-13T09:02:38.348Z,13.64
2022-10-13T09:03:36.448Z,13.46
2022-10-13T09:04:33.387Z,13.57
2022-10-13T09:05:31.509Z,13.29
2022-10-13T09:06:38.368Z,12.23
2022-10-13T09:07:26.449Z,12.09
2022-10-13T09:08:06.370Z,11.56
2022-10-13T09:09:00.462Z,11.18
2022-10-13T09:09:40.398Z,11.59
2022-10-13T09:10:20.439Z,11.93